Terminal Aerodrome Forecast
Issued by NWS

Home | Current Version | Previous Version | Text Only | Print | Product List | Glossary On
Versions: 1 2 3 4 5 6 7 8 9 10 11 12 13 14 15 16 17 18 19 20 21 22 23 24
000
FTUS42 KTBW 260500
TAFLAL
TAF
KLAL 260540Z 2606/2706 20007KT P6SM -RA SCT007 BKN017 OVC140
      TEMPO 2606/2608 BKN007
     FM260900 30016G25KT P6SM VCSH FEW005 OVC025
     FM261300 33014G22KT P6SM VCSH SCT015 BKN050
     FM261800 34012G18KT P6SM FEW020 SCT150
     FM262300 34005KT P6SM FEW250
      AMD NOT SKED 2606/2612=

USA.gov is the U.S. government's official web portal to all federal, state and local government web resources and services.